logo tempoitalia

Diretta Meteo Boulder City, Stati Uniti (USA)domenica 30 agosto ore 23:35

Mappa
Sereno 30 °C Sereno 24 Ore: T.min 28 T.max 39
Ponente Nord Km/h 5.5 Punto di rugiada: 14 °C Umidità: 37% Visibilità: 10 Km
Il sole sorge alle: 06:10 Il sole tramonta alle: 19:09
30 Agosto 2026 23:35 tempo osservato: Sereno Sereno 30 37 1010 vento: Nord N 5.5
30 Agosto 2026 23:15 tempo osservato: Sereno Sereno 30 35 1010 vento: Nord N 5.5
30 Agosto 2026 22:55 tempo osservato: Sereno Sereno 30 27 1010 vento: Nord N 5.5
30 Agosto 2026 22:35 tempo osservato: Sereno Sereno 30 20 1010 vento: Nord N 0
30 Agosto 2026 22:15 tempo osservato: Sereno Sereno 32 17 1010 vento: Nord N 0
30 Agosto 2026 21:55 tempo osservato: Sereno Sereno 30 23 1009 vento: Nord E/NE 7.4
30 Agosto 2026 21:35 tempo osservato: Sereno Sereno 29 26 1009 vento: Nord N 0
30 Agosto 2026 21:15 tempo osservato: Sereno Sereno 30 25 1009 vento: Nord N 0
30 Agosto 2026 20:55 tempo osservato: Sereno Sereno 31 23 1009 vento: Nord N 0
30 Agosto 2026 20:35 tempo osservato: Sereno Sereno 33 17 1009 vento: Nord N 0
30 Agosto 2026 20:15 tempo osservato: Sereno Sereno 33 17 1008 vento: Nord N 5.5
30 Agosto 2026 19:55 tempo osservato: Sereno Sereno 34 14 1008 vento: Nord N 0
30 Agosto 2026 19:35 tempo osservato: Sereno Sereno 35 13 1008 vento: Nord O/SO 13
30 Agosto 2026 19:15 tempo osservato: Sereno Sereno 35 12 1008 vento: Nord O 14.8
30 Agosto 2026 18:55 tempo osservato: Sereno Sereno 36 12 1008 vento: Nord O/SO 16.7
30 Agosto 2026 18:35 tempo osservato: Sereno Sereno 37 12 1008 vento: Nord O 24
30 Agosto 2026 18:15 tempo osservato: Sereno Sereno 37 12 1008 vento: Nord O 14.8
30 Agosto 2026 17:55 tempo osservato: Sereno Sereno 37 12 1008 vento: Nord O 16.7
30 Agosto 2026 17:35 tempo osservato: Sereno Sereno 38 11 1008 vento: Nord O 20.3
30 Agosto 2026 17:15 tempo osservato: Sereno Sereno 38 11 1008 vento: Nord O 18.5
30 Agosto 2026 16:55 tempo osservato: Sereno Sereno 38 11 1008 vento: Nord O 31.5
30 Agosto 2026 16:35 tempo osservato: Sereno Sereno 38 11 1008 vento: Nord O/NO 18.5
30 Agosto 2026 16:15 tempo osservato: Sereno Sereno 39 11 1008 vento: Nord O/SO 16.7
30 Agosto 2026 15:55 tempo osservato: Sereno Sereno 39 11 1008 vento: Nord O/SO 27.8
30 Agosto 2026 15:35 tempo osservato: Sereno Sereno 39 11 1008 vento: Nord O 18.5
30 Agosto 2026 15:15 tempo osservato: Sereno Sereno 39 11 1009 vento: Nord SO 24
30 Agosto 2026 14:55 tempo osservato: Sereno Sereno 38 12 1009 vento: Nord O 24
30 Agosto 2026 14:35 tempo osservato: Sereno Sereno 39 11 1009 vento: Nord S/SO 22.2
30 Agosto 2026 14:15 tempo osservato: Sereno Sereno 39 11 1009 vento: Nord O/SO 24
30 Agosto 2026 13:55 tempo osservato: Sereno Sereno 38 12 1010 vento: Nord SO 24
30 Agosto 2026 13:35 tempo osservato: Sereno Sereno 38 12 1010 vento: Nord SO 27.8
30 Agosto 2026 13:15 tempo osservato: Sereno Sereno 38 12 1010 vento: Nord N 11.1
30 Agosto 2026 12:55 tempo osservato: Sereno Sereno 38 12 1010 vento: Nord S/SO 27.8
30 Agosto 2026 12:35 tempo osservato: Sereno Sereno 38 12 1010 vento: Nord SO 27.8
30 Agosto 2026 12:15 tempo osservato: Sereno Sereno 37 12 1011 vento: Nord O/SO 24
30 Agosto 2026 11:55 tempo osservato: Sereno Sereno 36 13 1011 vento: Nord SO 25.9
30 Agosto 2026 11:35 tempo osservato: Sereno Sereno 36 12 1011 vento: Nord O/SO 20.3
30 Agosto 2026 11:15 tempo osservato: Sereno Sereno 35 13 1011 vento: Nord O/SO 20.3
30 Agosto 2026 10:55 tempo osservato: Sereno Sereno 34 14 1012 vento: Nord SO 22.2
30 Agosto 2026 10:35 tempo osservato: Sereno Sereno 35 13 1012 vento: Nord S/SO 16.7
30 Agosto 2026 10:15 tempo osservato: Sereno Sereno 35 13 1012 vento: Nord O/SO 20.3
30 Agosto 2026 09:55 tempo osservato: Sereno Sereno 35 14 1012 vento: Nord O/SO 18.5
30 Agosto 2026 09:35 tempo osservato: Sereno Sereno 34 15 1011 vento: Nord SO 18.5
30 Agosto 2026 09:15 tempo osservato: Sereno Sereno 33 16 1012 vento: Nord O/SO 14.8
30 Agosto 2026 08:55 tempo osservato: Sereno Sereno 33 17 1011 vento: Nord S/SO 11.1
30 Agosto 2026 08:35 tempo osservato: Sereno Sereno 32 18 1011 vento: Nord S/SO 16.7
30 Agosto 2026 08:15 tempo osservato: Sereno Sereno 32 19 1011 vento: Nord SO 9.3
30 Agosto 2026 07:55 tempo osservato: Sereno Sereno 32 21 1011 vento: Nord S/SO 11.1
30 Agosto 2026 07:35 tempo osservato: Sereno Sereno 32 22 1011 vento: Nord S 14.8
30 Agosto 2026 07:15 tempo osservato: Sereno Sereno 31 23 1011 vento: Nord N 7.4
30 Agosto 2026 06:55 tempo osservato: Sereno Sereno 30 25 1011 vento: Nord S/SE 13
30 Agosto 2026 06:35 tempo osservato: Sereno Sereno 28 32 1011 vento: Nord NE 9.3
30 Agosto 2026 06:15 tempo osservato: Sereno Sereno 29 28 1010 vento: Nord N 0
30 Agosto 2026 05:55 tempo osservato: Sereno Sereno 29 28 1010 vento: Nord N 0
30 Agosto 2026 05:35 tempo osservato: Sereno Sereno 29 28 1010 vento: Nord S/SE 7.4
30 Agosto 2026 05:15 tempo osservato: Sereno Sereno 30 27 1010 vento: Nord S 16.7
30 Agosto 2026 04:55 tempo osservato: Sereno Sereno 31 25 1009 vento: Nord N 5.5
30 Agosto 2026 04:35 tempo osservato: Sereno Sereno 31 25 1009 vento: Nord N 11.1
30 Agosto 2026 04:15 tempo osservato: Sereno Sereno 31 25 1009 vento: Nord N 0
30 Agosto 2026 03:55 tempo osservato: Sereno Sereno 32 24 1009 vento: Nord N 0
30 Agosto 2026 03:35 tempo osservato: Sereno Sereno 29 32 1009 vento: Nord N 0
30 Agosto 2026 03:15 tempo osservato: Sereno Sereno 28 37 1009 vento: Nord N 0
30 Agosto 2026 02:55 tempo osservato: Sereno Sereno 29 32 1009 vento: Nord N 0
30 Agosto 2026 02:35 tempo osservato: Sereno Sereno 32 24 1009 vento: Nord N 0
30 Agosto 2026 02:15 tempo osservato: Sereno Sereno 31 25 1009 vento: Nord N 5.5
30 Agosto 2026 01:55 tempo osservato: Sereno Sereno 32 24 1009 vento: Nord N 0
30 Agosto 2026 01:35 tempo osservato: Sereno Sereno 31 25 1009 vento: Nord S/SO 11.1
30 Agosto 2026 01:15 tempo osservato: Sereno Sereno 32 22 1009 vento: Nord S 11.1
30 Agosto 2026 00:55 tempo osservato: Sereno Sereno 32 22 1009 vento: Nord S 7.4
30 Agosto 2026 00:35 tempo osservato: Sereno Sereno 32 22 1009 vento: Nord SE 9.3
30 Agosto 2026 00:15 tempo osservato: Sereno Sereno 33 21 1009 vento: Nord N 5.5
29 Agosto 2026 23:55 tempo osservato: Sereno Sereno 33 21 1009 vento: Nord N 0
29 Agosto 2026 23:35 tempo osservato: Sereno Sereno 33 21 1009 vento: Nord N 0